Time;durP1;ratioP1;P1;durP2;ratioP2;P2;SDS_P1;SDS_P2;PMS_P1;PMS_P2;Temp;Humidity;BMP_temperature;BMP_pressure;BME280_temperature;BME280_humidity;BME280_pressure;Samples;Min_cycle;Max_cycle;Signal;HPM_P1;HPM_P2
2022/11/03 00:01:10;;;;;;;17.50;7.07;;;6.20;99.90;;;;;;4938592;29;20206;-85
2022/11/03 00:03:38;;;;;;;15.73;7.40;;;6.20;99.90;;;;;;4938421;29;20232;-80
2022/11/03 00:06:05;;;;;;;16.83;9.47;;;6.20;99.90;;;;;;4938600;29;20204;-82
2022/11/03 00:08:34;;;;;;;19.37;9.80;;;6.20;99.90;;;;;;4938186;29;20207;-81
2022/11/03 00:11:09;;;;;;;23.60;14.50;;;6.10;99.90;;;;;;4938249;28;20275;-82
2022/11/03 00:13:38;;;;;;;19.30;10.77;;;6.10;99.90;;;;;;4937983;29;20187;-80
2022/11/03 00:16:06;;;;;;;17.67;8.60;;;6.10;1.00;;;;;;4938300;29;20230;-84
2022/11/03 00:18:34;;;;;;;16.57;8.30;;;6.10;1.00;;;;;;4937948;29;20607;-80
2022/11/03 00:21:04;;;;;;;15.93;8.07;;;6.00;1.00;;;;;;4937788;29;20817;-86
2022/11/03 00:23:33;;;;;;;13.40;7.67;;;6.00;1.00;;;;;;4937861;29;20619;-83
2022/11/03 00:26:04;;;;;;;15.10;7.73;;;6.00;1.00;;;;;;4937800;29;20197;-81
2022/11/03 00:28:32;;;;;;;17.13;8.80;;;6.00;1.00;;;;;;4937429;29;20265;-81
2022/11/03 00:31:00;;;;;;;19.53;10.47;;;6.00;1.00;;;;;;4937681;29;20662;-83
2022/11/03 00:33:31;;;;;;;16.03;8.27;;;6.00;1.00;;;;;;4937648;29;20275;-85
2022/11/03 00:36:01;;;;;;;14.70;8.00;;;6.00;1.00;;;;;;4937420;29;20292;-80
2022/11/03 00:38:28;;;;;;;17.03;8.63;;;6.00;1.00;;;;;;4937491;29;20277;-82
2022/11/03 00:40:56;;;;;;;16.63;8.53;;;5.90;1.00;;;;;;4937228;29;20729;-83
2022/11/03 00:43:24;;;;;;;16.77;9.43;;;5.90;1.00;;;;;;4937477;29;20266;-83
2022/11/03 00:45:51;;;;;;;25.10;13.10;;;5.90;1.00;;;;;;4937190;29;20662;-80
2022/11/03 00:48:31;;;;;;;29.00;14.63;;;5.90;1.00;;;;;;4937557;29;20227;-81
2022/11/03 00:51:04;;;;;;;29.70;15.23;;;5.80;1.00;;;;;;4937749;29;20525;-84
2022/11/03 00:53:32;;;;;;;29.90;14.20;;;5.80;10.40;;;;;;4937280;29;20210;-86
2022/11/03 00:56:00;;;;;;;28.37;14.53;;;5.70;1.00;;;;;;4937293;29;20219;-85
2022/11/03 00:58:27;;;;;;;29.23;13.67;;;5.70;90.60;;;;;;4937355;29;20666;-80
2022/11/03 01:00:59;;;;;;;36.20;17.97;;;5.70;99.90;;;;;;4936771;29;20199;-85
2022/11/03 01:03:27;;;;;;;37.33;20.23;;;5.70;99.90;;;;;;4937490;29;20184;-84
2022/11/03 01:08:39;;;;;;;37.93;17.90;;;5.70;99.90;;;;;;4937359;29;20198;-80
2022/11/03 01:13:52;;;;;;;33.57;17.67;;;5.60;99.90;;;;;;4936790;29;20698;-82
2022/11/03 01:16:19;;;;;;;36.33;18.37;;;5.60;99.90;;;;;;4936857;29;20223;-81
2022/11/03 01:18:46;;;;;;;35.50;18.53;;;5.60;99.90;;;;;;4936870;29;20235;-81
2022/11/03 01:21:13;;;;;;;38.23;19.37;;;5.60;99.90;;;;;;4937088;29;20201;-81
2022/11/03 01:23:41;;;;;;;38.60;19.77;;;5.60;1.00;;;;;;4936868;29;20198;-85
2022/11/03 01:26:10;;;;;;;63.57;23.10;;;5.50;1.00;;;;;;4937207;29;20198;-85
2022/11/03 01:28:39;;;;;;;52.73;21.87;;;5.50;1.00;;;;;;4936844;29;20262;-81
2022/11/03 01:31:08;;;;;;;44.60;19.37;;;5.50;1.00;;;;;;4936517;29;20186;-81
2022/11/03 01:33:35;;;;;;;38.83;19.00;;;5.50;1.00;;;;;;4936673;29;20227;-85
2022/11/03 01:36:02;;;;;;;35.07;16.87;;;5.50;1.00;;;;;;4936231;29;20234;-83
2022/11/03 01:38:32;;;;;;;38.90;19.00;;;5.50;1.00;;;;;;4936753;29;20203;-81
2022/11/03 01:41:01;;;;;;;38.77;18.77;;;5.50;1.00;;;;;;4936133;29;20293;-83
2022/11/03 01:43:30;;;;;;;29.27;13.63;;;5.50;1.00;;;;;;4936617;29;20206;-84
2022/11/03 01:46:04;;;;;;;24.97;13.83;;;5.50;1.00;;;;;;4936287;29;20210;-82
2022/11/03 01:48:33;;;;;;;27.73;12.63;;;5.50;1.00;;;;;;4936150;29;20662;-87
2022/11/03 01:51:01;;;;;;;22.77;12.97;;;5.50;8.70;;;;;;4936622;29;20660;-84
2022/11/03 01:53:29;;;;;;;28.90;14.57;;;5.50;99.90;;;;;;4936202;29;20198;-87
2022/11/03 01:55:57;;;;;;;31.97;15.33;;;5.50;16.50;;;;;;4936121;29;20207;-84
2022/11/03 01:58:29;;;;;;;30.57;15.57;;;5.40;1.00;;;;;;4936401;29;20202;-80
2022/11/03 02:00:58;;;;;;;29.90;14.57;;;5.40;17.80;;;;;;4935924;29;20191;-83
2022/11/03 02:03:28;;;;;;;29.33;14.70;;;5.30;1.00;;;;;;4935905;28;20657;-82
2022/11/03 02:05:56;;;;;;;26.87;12.77;;;5.30;1.00;;;;;;4935713;29;20194;-85
2022/11/03 02:08:26;;;;;;;23.00;11.80;;;5.30;99.90;;;;;;4935909;29;20534;-81
2022/11/03 02:10:53;;;;;;;22.53;11.07;;;5.30;99.90;;;;;;4936201;29;20246;-83
2022/11/03 02:13:22;;;;;;;28.77;13.67;;;5.30;99.90;;;;;;4935749;29;20205;-87
2022/11/03 02:15:53;;;;;;;23.47;13.40;;;5.30;99.90;;;;;;4935789;29;20719;-81
2022/11/03 02:18:26;;;;;;;26.73;13.77;;;5.30;99.90;;;;;;4935485;29;20676;-86
2022/11/03 02:21:02;;;;;;;28.53;15.47;;;5.30;99.90;;;;;;4935671;29;20257;-80
2022/11/03 02:23:34;;;;;;;28.13;14.00;;;5.30;99.90;;;;;;4935988;29;20199;-81
2022/11/03 02:26:03;;;;;;;28.00;13.80;;;5.20;99.90;;;;;;4935706;29;20193;-83
2022/11/03 02:28:32;;;;;;;33.03;15.00;;;5.20;99.90;;;;;;4927689;29;20202;-84
2022/11/03 02:31:09;;;;;;;47.37;19.23;;;5.20;99.90;;;;;;4935840;29;20258;-83
2022/11/03 02:33:48;;;;;;;55.47;21.93;;;5.20;99.90;;;;;;4935545;29;20570;-85
2022/11/03 02:36:22;;;;;;;49.27;19.67;;;5.10;99.90;;;;;;4935245;29;20224;-82
2022/11/03 02:38:56;;;;;;;30.47;14.50;;;5.10;99.90;;;;;;4935611;29;20186;-81
2022/11/03 02:41:26;;;;;;;36.80;17.23;;;5.10;1.00;;;;;;4935645;29;20180;-81
2022/11/03 02:43:55;;;;;;;32.60;15.30;;;5.10;1.00;;;;;;4935354;29;20194;-82
2022/11/03 02:46:25;;;;;;;26.30;13.83;;;5.10;1.00;;;;;;4935228;29;20730;-82
2022/11/03 02:48:53;;;;;;;31.87;13.53;;;5.10;1.00;;;;;;4935409;29;20186;-87
2022/11/03 02:51:20;;;;;;;26.87;13.50;;;5.10;1.00;;;;;;4935219;29;20204;-83
2022/11/03 02:53:54;;;;;;;22.63;11.70;;;5.10;1.00;;;;;;4935132;29;20246;-85
2022/11/03 02:56:24;;;;;;;25.20;11.63;;;5.10;1.00;;;;;;4935152;29;20281;-82
2022/11/03 02:58:57;;;;;;;24.73;12.10;;;5.10;1.00;;;;;;4935234;29;20216;-83
2022/11/03 03:01:31;;;;;;;25.20;11.30;;;5.10;1.00;;;;;;4935479;29;20197;-81
2022/11/03 03:04:01;;;;;;;22.87;10.77;;;5.10;1.00;;;;;;4935463;29;20214;-82
2022/11/03 03:06:32;;;;;;;23.97;10.40;;;5.10;1.00;;;;;;4935465;29;20609;-82
2022/11/03 03:09:06;;;;;;;18.80;9.13;;;5.10;1.00;;;;;;4935263;29;20236;-83
2022/11/03 03:11:39;;;;;;;21.73;9.73;;;5.10;1.00;;;;;;4935099;29;20603;-81
2022/11/03 03:14:09;;;;;;;18.83;9.30;;;5.10;1.00;;;;;;4935009;29;20179;-86
2022/11/03 03:16:49;;;;;;;18.97;9.73;;;5.10;1.00;;;;;;4934759;29;20623;-84
2022/11/03 03:19:25;;;;;;;25.87;10.87;;;5.10;1.00;;;;;;4935154;29;20609;-84
2022/11/03 03:21:57;;;;;;;34.80;13.33;;;5.10;1.00;;;;;;4934994;29;20550;-84
2022/11/03 03:24:31;;;;;;;29.87;12.97;;;5.10;1.00;;;;;;4937065;29;20244;-87
2022/11/03 03:27:03;;;;;;;19.03;10.63;;;5.10;1.00;;;;;;4938711;29;20607;-83
2022/11/03 03:29:37;;;;;;;24.70;10.37;;;5.10;17.50;;;;;;4938780;29;20194;-81
2022/11/03 03:32:08;;;;;;;25.93;11.17;;;5.10;1.00;;;;;;4938778;29;20242;-80
2022/11/03 03:34:39;;;;;;;19.27;8.73;;;5.10;18.10;;;;;;4938914;29;20188;-82
2022/11/03 03:37:09;;;;;;;18.90;8.70;;;5.00;74.20;;;;;;4938143;29;20225;-82
2022/11/03 03:39:40;;;;;;;16.57;8.67;;;5.10;99.90;;;;;;4938955;29;20188;-84
2022/11/03 03:42:11;;;;;;;20.77;8.93;;;5.00;99.90;;;;;;4938980;29;20200;-84
2022/11/03 03:44:39;;;;;;;21.00;8.63;;;5.00;99.90;;;;;;4936211;29;20284;-82
2022/11/03 03:47:11;;;;;;;14.70;7.63;;;5.10;99.90;;;;;;4938410;29;20273;-83
2022/11/03 03:49:38;;;;;;;14.17;7.30;;;5.10;99.90;;;;;;4938494;29;20233;-84
2022/11/03 03:52:05;;;;;;;18.97;7.93;;;5.10;99.90;;;;;;4938164;29;20711;-81
2022/11/03 03:54:32;;;;;;;16.13;7.10;;;5.10;99.90;;;;;;4938481;29;20200;-82
2022/11/03 03:57:02;;;;;;;15.97;7.03;;;5.10;99.90;;;;;;4938106;29;20213;-81
2022/11/03 03:59:30;;;;;;;17.23;6.93;;;5.10;99.90;;;;;;4938014;29;20198;-87
2022/11/03 04:01:58;;;;;;;17.13;7.57;;;5.10;99.90;;;;;;4938312;29;20201;-82
2022/11/03 04:04:25;;;;;;;17.70;8.40;;;5.10;1.00;;;;;;4938449;29;20305;-82
2022/11/03 04:07:45;;;;;;;15.53;7.87;;;5.10;1.00;;;;;;4938416;29;20208;-85
2022/11/03 04:09:39;;;;;;;15.50;7.67;;;5.20;1.00;;;;;;4938214;29;20196;-81
2022/11/03 04:23:10;;;;;;;13.17;6.77;;;5.20;1.00;;;;;;4937722;29;20191;-81
2022/11/03 04:25:37;;;;;;;17.93;7.20;;;5.20;1.00;;;;;;4934183;29;20194;-81
2022/11/03 04:28:10;;;;;;;14.10;7.20;;;5.20;1.00;;;;;;4937323;29;20195;-85
2022/11/03 04:30:38;;;;;;;15.53;7.63;;;5.20;1.00;;;;;;4937568;29;20186;-82
2022/11/03 04:33:14;;;;;;;16.10;7.17;;;5.20;1.00;;;;;;4937640;29;20696;-81
2022/11/03 04:35:43;;;;;;;13.00;6.93;;;5.20;1.00;;;;;;4917620;29;20701;-82
2022/11/03 04:38:21;;;;;;;18.37;8.10;;;5.20;1.00;;;;;;4918918;29;20251;-82
2022/11/03 04:40:52;;;;;;;23.47;14.53;;;5.20;1.00;;;;;;4921608;29;20616;-84
2022/11/03 04:43:20;;;;;;;16.93;10.27;;;5.20;1.00;;;;;;4937515;29;20199;-80
2022/11/03 04:45:50;;;;;;;15.00;9.20;;;5.30;1.00;;;;;;4937598;29;20206;-86
2022/11/03 04:48:21;;;;;;;15.87;7.30;;;5.20;1.00;;;;;;4937291;29;20197;-84
2022/11/03 04:50:50;;;;;;;12.10;7.30;;;5.30;1.00;;;;;;4937596;29;20185;-85
2022/11/03 04:53:18;;;;;;;14.83;7.30;;;5.30;1.00;;;;;;4937523;29;20252;-80
2022/11/03 04:55:47;;;;;;;14.80;7.83;;;5.30;1.00;;;;;;4937708;29;20620;-83
2022/11/03 04:58:20;;;;;;;13.07;6.77;;;5.30;1.00;;;;;;4937465;29;20231;-81
2022/11/03 05:00:49;;;;;;;15.17;7.33;;;5.30;1.00;;;;;;4936882;29;20281;-81
2022/11/03 05:03:22;;;;;;;14.00;7.63;;;5.30;1.00;;;;;;4936822;29;20618;-87
2022/11/03 05:05:49;;;;;;;17.37;6.63;;;5.20;1.00;;;;;;4937469;28;20207;-81
2022/11/03 05:08:18;;;;;;;17.87;6.97;;;5.30;26.30;;;;;;4936854;29;20209;-81
2022/11/03 05:10:45;;;;;;;16.13;8.10;;;5.30;21.70;;;;;;4937065;29;20202;-80
2022/11/03 05:13:21;;;;;;;17.97;7.50;;;5.30;54.30;;;;;;4937037;29;20258;-83
2022/11/03 05:15:51;;;;;;;19.57;7.20;;;5.30;99.90;;;;;;4937609;29;20551;-82
2022/11/03 05:18:21;;;;;;;18.17;7.17;;;5.30;99.90;;;;;;4937341;29;20201;-80
2022/11/03 05:20:52;;;;;;;12.00;6.43;;;5.30;74.00;;;;;;4933376;29;20217;-82
2022/11/03 05:23:21;;;;;;;14.47;6.83;;;5.30;99.90;;;;;;4937105;29;20188;-84
2022/11/03 05:25:50;;;;;;;13.03;7.17;;;5.40;9.00;;;;;;4936944;29;20259;-84
2022/11/03 05:28:24;;;;;;;18.40;7.43;;;5.40;1.00;;;;;;4936502;29;20246;-80
2022/11/03 05:30:53;;;;;;;15.77;6.80;;;5.40;21.10;;;;;;4937082;29;20255;-82
2022/11/03 05:33:28;;;;;;;16.00;7.30;;;5.40;55.00;;;;;;4936832;29;20720;-84
2022/11/03 05:35:58;;;;;;;16.27;8.07;;;5.40;57.50;;;;;;4936260;29;20229;-86
2022/11/03 05:38:29;;;;;;;13.50;7.50;;;5.40;34.70;;;;;;4936426;29;20209;-81
2022/11/03 05:40:56;;;;;;;17.97;7.27;;;5.50;1.00;;;;;;4936007;29;20248;-88
2022/11/03 05:43:23;;;;;;;14.33;7.73;;;5.50;1.00;;;;;;4937112;29;20207;-81
2022/11/03 05:45:53;;;;;;;17.77;7.37;;;5.40;1.00;;;;;;4936490;29;20654;-80
2022/11/03 05:48:30;;;;;;;17.50;7.13;;;5.50;1.00;;;;;;4936410;29;20192;-82
2022/11/03 05:51:00;;;;;;;16.90;7.17;;;5.50;1.00;;;;;;4931831;29;20206;-87
2022/11/03 05:53:29;;;;;;;16.83;7.33;;;5.50;1.00;;;;;;4935063;29;20201;-81
2022/11/03 05:56:00;;;;;;;20.00;7.60;;;5.40;1.00;;;;;;4935652;29;20664;-81
2022/11/03 05:58:31;;;;;;;14.33;7.00;;;5.40;1.00;;;;;;4935271;29;20318;-83
2022/11/03 06:01:02;;;;;;;17.57;7.50;;;5.40;1.00;;;;;;4934754;29;20189;-81
2022/11/03 06:03:34;;;;;;;15.27;7.43;;;5.40;1.00;;;;;;4934900;29;20260;-82
2022/11/03 06:06:02;;;;;;;19.00;7.63;;;5.40;1.00;;;;;;4935769;29;20238;-81
2022/11/03 06:08:34;;;;;;;13.70;7.63;;;5.40;1.00;;;;;;4935998;29;20206;-81
2022/11/03 06:11:03;;;;;;;13.57;7.30;;;5.40;1.00;;;;;;4935884;29;20199;-86
2022/11/03 06:13:34;;;;;;;19.60;7.47;;;5.40;1.00;;;;;;4935898;29;20202;-83
2022/11/03 06:16:06;;;;;;;27.40;8.30;;;5.40;49.20;;;;;;4935153;29;20192;-83
2022/11/03 06:18:36;;;;;;;24.90;8.03;;;5.40;99.90;;;;;;4935375;29;20213;-83
2022/11/03 06:21:08;;;;;;;15.07;7.40;;;5.40;99.90;;;;;;4935662;29;20246;-84
2022/11/03 06:23:36;;;;;;;21.07;7.80;;;5.40;99.90;;;;;;4935599;29;20226;-83
2022/11/03 06:26:04;;;;;;;16.17;7.70;;;5.50;99.90;;;;;;4935722;29;20254;-82
2022/11/03 06:28:36;;;;;;;15.50;8.03;;;5.50;99.90;;;;;;4935391;29;20253;-84
2022/11/03 06:31:14;;;;;;;22.37;8.30;;;5.60;99.90;;;;;;4935562;29;20653;-82
2022/11/03 06:33:41;;;;;;;30.70;9.07;;;5.60;99.90;;;;;;4935381;29;20223;-83
2022/11/03 06:36:16;;;;;;;27.03;10.63;;;5.70;99.90;;;;;;4935302;29;20573;-84
2022/11/03 06:38:46;;;;;;;16.97;9.13;;;5.70;99.90;;;;;;4935548;29;20208;-83
2022/11/03 06:41:18;;;;;;;21.43;9.57;;;5.80;99.90;;;;;;4934844;29;20573;-83
2022/11/03 06:43:45;;;;;;;19.73;9.77;;;5.90;1.00;;;;;;4935198;29;20244;-84
2022/11/03 06:46:19;;;;;;;22.13;10.57;;;6.00;1.00;;;;;;4935371;29;20209;-82
2022/11/03 06:48:46;;;;;;;22.50;9.10;;;6.00;1.00;;;;;;4935382;29;20183;-82
2022/11/03 06:51:16;;;;;;;18.17;9.43;;;6.10;1.00;;;;;;4935376;29;20206;-83
2022/11/03 06:53:43;;;;;;;18.33;8.47;;;6.20;1.00;;;;;;4935321;29;20259;-85
2022/11/03 06:56:14;;;;;;;21.27;9.43;;;6.20;1.00;;;;;;4934971;29;20215;-84
2022/11/03 06:58:42;;;;;;;18.77;10.37;;;6.30;1.00;;;;;;4934246;29;20216;-84
2022/11/03 07:01:15;;;;;;;20.97;10.63;;;6.40;1.00;;;;;;4935182;29;20196;-82
2022/11/03 07:03:43;;;;;;;42.83;23.53;;;6.40;1.00;;;;;;4935203;29;20194;-83
2022/11/03 07:06:17;;;;;;;30.83;20.37;;;6.50;99.90;;;;;;4935045;29;20207;-84
2022/11/03 07:08:46;;;;;;;24.13;13.73;;;6.60;99.90;;;;;;4935168;29;20193;-83
2022/11/03 07:11:17;;;;;;;24.40;14.30;;;6.60;99.90;;;;;;4934811;29;20197;-82
2022/11/03 07:13:45;;;;;;;33.33;18.30;;;6.60;99.90;;;;;;4935216;29;20593;-84
2022/11/03 07:16:18;;;;;;;28.33;16.83;;;6.70;74.80;;;;;;4935051;29;20212;-84
2022/11/03 07:18:46;;;;;;;25.97;14.40;;;6.70;36.00;;;;;;4934800;29;20205;-82
2022/11/03 07:21:28;;;;;;;22.50;12.60;;;6.80;1.00;;;;;;4935053;29;20215;-84
2022/11/03 07:23:57;;;;;;;24.80;14.07;;;6.80;1.00;;;;;;4934964;29;20185;-83
2022/11/03 07:26:25;;;;;;;23.40;14.23;;;6.90;1.00;;;;;;4935349;29;20274;-83
2022/11/03 07:28:52;;;;;;;26.40;13.87;;;6.90;1.00;;;;;;4934589;29;20722;-83
2022/11/03 07:31:23;;;;;;;21.93;12.87;;;6.90;1.00;;;;;;4934978;29;20197;-82
2022/11/03 07:33:56;;;;;;;26.30;15.10;;;7.00;1.00;;;;;;4935023;29;20189;-84
2022/11/03 07:36:25;;;;;;;26.20;12.67;;;7.10;1.00;;;;;;4934837;29;20231;-82
2022/11/03 07:38:55;;;;;;;25.90;13.57;;;7.20;1.00;;;;;;4934757;29;20279;-82
2022/11/03 07:41:26;;;;;;;23.13;11.87;;;7.20;1.00;;;;;;4934636;29;20284;-84
2022/11/03 07:43:56;;;;;;;19.37;10.67;;;7.20;1.00;;;;;;4934141;29;20817;-84
2022/11/03 07:46:25;;;;;;;21.30;11.93;;;7.30;1.00;;;;;;4934560;29;20612;-83
2022/11/03 07:48:56;;;;;;;32.07;11.70;;;7.30;1.00;;;;;;4934825;29;20204;-83
2022/11/03 07:51:26;;;;;;;23.50;10.67;;;7.40;1.00;;;;;;4934811;29;20197;-85
2022/11/03 07:53:55;;;;;;;21.27;10.60;;;7.40;99.90;;;;;;4934720;29;20202;-83
2022/11/03 07:56:23;;;;;;;25.00;11.33;;;7.40;99.90;;;;;;4934734;29;20256;-85
2022/11/03 07:58:52;;;;;;;21.40;10.67;;;7.50;99.90;;;;;;4934325;29;20699;-83
2022/11/03 08:01:26;;;;;;;18.40;9.90;;;7.50;99.90;;;;;;4934126;29;20735;-82
2022/11/03 08:03:57;;;;;;;45.87;29.13;;;7.50;1.00;;;;;;4934443;29;20212;-85
2022/11/03 08:06:24;;;;;;;28.13;14.60;;;7.60;99.90;;;;;;4934633;29;20240;-84
2022/11/03 08:08:51;;;;;;;31.73;16.30;;;7.70;99.90;;;;;;4934243;29;20253;-85
2022/11/03 08:11:18;;;;;;;29.80;17.33;;;7.70;99.90;;;;;;4937563;29;20715;-86
2022/11/03 08:13:45;;;;;;;26.80;15.17;;;7.70;99.90;;;;;;4938125;29;20210;-83
2022/11/03 08:16:12;;;;;;;22.77;13.23;;;7.80;99.90;;;;;;4937803;29;20668;-84
2022/11/03 08:18:40;;;;;;;19.30;10.90;;;7.80;99.90;;;;;;4937949;29;20284;-83
2022/11/03 08:21:07;;;;;;;20.57;10.37;;;8.00;99.90;;;;;;4937436;29;20679;-83
2022/11/03 08:23:34;;;;;;;30.20;14.90;;;8.00;99.30;;;;;;4937646;29;20716;-83
2022/11/03 08:26:01;;;;;;;19.57;10.27;;;8.10;1.00;;;;;;4938132;29;20197;-85
2022/11/03 08:28:29;;;;;;;16.97;8.60;;;8.20;1.00;;;;;;4937473;29;20198;-83
2022/11/03 08:31:00;;;;;;;15.17;8.60;;;8.30;1.00;;;;;;4937800;29;20654;-82
2022/11/03 08:33:27;;;;;;;24.90;10.77;;;8.40;1.00;;;;;;4937857;29;20190;-83
2022/11/03 08:35:56;;;;;;;17.50;7.83;;;8.50;1.00;;;;;;4937225;29;20211;-83
2022/11/03 08:38:23;;;;;;;15.80;7.60;;;8.60;1.00;;;;;;4937632;29;20238;-82
2022/11/03 08:40:49;;;;;;;24.83;15.83;;;8.80;99.90;;;;;;4937207;29;20196;-83
2022/11/03 08:43:17;;;;;;;16.87;8.87;;;8.90;90.60;;;;;;4937025;29;20259;-84
2022/11/03 08:45:44;;;;;;;19.37;9.30;;;9.00;1.00;;;;;;4937571;29;20203;-82
2022/11/03 08:48:11;;;;;;;18.60;9.30;;;9.10;1.00;;;;;;4937578;29;20219;-82
2022/11/03 08:50:38;;;;;;;20.23;9.63;;;9.10;99.90;;;;;;4937216;29;20207;-83
2022/11/03 08:53:07;;;;;;;16.07;10.97;;;9.20;99.90;;;;;;4937627;29;20613;-83
2022/11/03 08:55:34;;;;;;;17.73;13.07;;;9.20;58.80;;;;;;4937333;29;20203;-83
2022/11/03 08:58:01;;;;;;;21.50;11.97;;;9.30;1.00;;;;;;4936924;29;20194;-81
2022/11/03 09:00:28;;;;;;;13.60;9.30;;;9.30;1.00;;;;;;4937291;29;20263;-82
2022/11/03 09:02:55;;;;;;;18.67;11.70;;;9.40;1.00;;;;;;4937326;29;20547;-84
2022/11/03 09:05:22;;;;;;;25.53;10.23;;;9.40;99.90;;;;;;4936979;29;20580;-82
2022/11/03 09:07:49;;;;;;;24.07;10.73;;;9.40;99.90;;;;;;4936881;29;20545;-82
2022/11/03 09:10:17;;;;;;;33.50;17.17;;;9.50;99.90;;;;;;4937106;29;20208;-82
2022/11/03 09:12:44;;;;;;;20.13;12.80;;;9.50;1.00;;;;;;4936788;29;20696;-81
2022/11/03 09:15:12;;;;;;;22.60;11.80;;;9.60;1.00;;;;;;4937004;29;20206;-82
2022/11/03 09:17:39;;;;;;;18.87;9.97;;;9.70;1.00;;;;;;4936451;29;20245;-83
2022/11/03 09:20:06;;;;;;;21.70;12.17;;;9.80;1.00;;;;;;4936860;29;20610;-82
2022/11/03 09:22:33;;;;;;;29.23;15.77;;;9.80;1.00;;;;;;4936398;29;20658;-82
2022/11/03 09:25:01;;;;;;;25.33;14.73;;;9.90;1.00;;;;;;4936846;29;20193;-81
2022/11/03 09:27:29;;;;;;;38.47;15.73;;;10.00;99.90;;;;;;4936850;29;20201;-81
2022/11/03 09:29:56;;;;;;;18.00;13.10;;;10.00;99.90;;;;;;4936517;29;20200;-81
2022/11/03 09:32:23;;;;;;;24.00;16.77;;;10.10;99.90;;;;;;4936451;29;20202;-83
2022/11/03 09:34:50;;;;;;;19.20;13.07;;;10.20;99.90;;;;;;4936682;29;20273;-83
2022/11/03 09:37:17;;;;;;;11.63;7.40;;;10.30;99.90;;;;;;4935827;29;20284;-81
2022/11/03 09:39:44;;;;;;;15.47;10.57;;;10.40;1.00;;;;;;4936502;29;20231;-84
2022/11/03 09:42:12;;;;;;;35.53;11.83;;;10.50;1.00;;;;;;4936535;29;20196;-81
2022/11/03 09:44:41;;;;;;;20.87;9.80;;;10.60;1.00;;;;;;4936662;29;20208;-82
2022/11/03 09:47:25;;;;;;;14.93;7.27;;;10.70;1.00;;;;;;4936646;29;20252;-82
2022/11/03 09:49:52;;;;;;;15.87;9.83;;;10.80;1.00;;;;;;4936487;29;20250;-83
2022/11/03 09:52:22;;;;;;;17.40;8.83;;;10.80;1.00;;;;;;4936326;29;20205;-83
2022/11/03 09:54:51;;;;;;;17.10;8.70;;;10.90;99.90;;;;;;4935976;29;20190;-82
2022/11/03 09:57:18;;;;;;;14.37;9.57;;;11.00;99.90;;;;;;4935352;29;20238;-84
2022/11/03 09:59:48;;;;;;;16.47;9.53;;;11.10;99.90;;;;;;4935484;29;20225;-82
2022/11/03 10:02:21;;;;;;;16.00;7.57;;;11.20;99.90;;;;;;4936183;29;20206;-81
2022/11/03 10:04:49;;;;;;;16.40;9.27;;;11.30;99.90;;;;;;4936229;29;20235;-82
2022/11/03 10:07:16;;;;;;;16.97;7.87;;;11.40;61.20;;;;;;4935742;29;20899;-83
2022/11/03 10:09:46;;;;;;;12.23;8.07;;;11.50;1.00;;;;;;4936029;29;20215;-82
2022/11/03 10:12:13;;;;;;;13.20;6.80;;;11.60;1.00;;;;;;4936084;29;20591;-82
2022/11/03 10:14:41;;;;;;;11.90;6.17;;;11.70;1.00;;;;;;4935873;29;20252;-83
2022/11/03 10:17:16;;;;;;;11.30;6.17;;;11.80;1.00;;;;;;4935879;29;20247;-82
2022/11/03 10:19:43;;;;;;;16.87;5.97;;;11.80;1.00;;;;;;4935841;29;20209;-81
2022/11/03 10:22:11;;;;;;;11.67;6.80;;;11.90;99.90;;;;;;4936053;29;20290;-81
2022/11/03 10:24:37;;;;;;;17.30;6.90;;;11.90;99.90;;;;;;4936016;29;20201;-81
2022/11/03 10:27:20;;;;;;;11.13;6.90;;;11.90;99.90;;;;;;4935453;29;20248;-84
2022/11/03 10:30:07;;;;;;;13.87;8.07;;;12.00;99.90;;;;;;4935722;29;20275;-82
2022/11/03 10:32:35;;;;;;;12.73;6.80;;;12.00;99.90;;;;;;4935701;29;20202;-82
2022/11/03 10:35:03;;;;;;;15.80;6.63;;;12.00;99.90;;;;;;4935265;29;20210;-82
2022/11/03 10:37:30;;;;;;;9.77;5.40;;;12.00;99.90;;;;;;4934883;29;20706;-82
2022/11/03 10:39:58;;;;;;;10.30;5.50;;;12.10;99.90;;;;;;4935496;29;20217;-82
2022/11/03 10:42:28;;;;;;;11.63;5.30;;;12.10;99.90;;;;;;4935430;29;20905;-81
2022/11/03 10:45:10;;;;;;;11.50;5.93;;;12.20;99.90;;;;;;4935208;29;20208;-82
2022/11/03 10:47:38;;;;;;;15.40;6.57;;;12.20;63.20;;;;;;4935208;29;20607;-85
2022/11/03 10:50:21;;;;;;;14.00;7.47;;;12.30;1.00;;;;;;4935045;29;20735;-83
2022/11/03 10:52:48;;;;;;;13.17;8.30;;;12.30;1.00;;;;;;4935316;29;20186;-85
2022/11/03 10:55:16;;;;;;;10.93;5.33;;;12.30;1.00;;;;;;4935290;29;20265;-81
2022/11/03 10:57:43;;;;;;;6.90;4.10;;;12.40;1.00;;;;;;4935218;29;20197;-83
2022/11/03 11:00:14;;;;;;;8.87;3.73;;;12.40;1.00;;;;;;4935279;29;20240;-82
2022/11/03 11:02:44;;;;;;;11.17;3.77;;;12.40;1.00;;;;;;4935186;29;20194;-81
2022/11/03 11:05:15;;;;;;;8.87;4.43;;;12.50;1.00;;;;;;4935378;29;20205;-82
2022/11/03 11:07:44;;;;;;;13.27;4.63;;;12.50;1.00;;;;;;4935085;29;20289;-82
2022/11/03 11:10:16;;;;;;;7.83;4.73;;;12.60;1.00;;;;;;4935342;29;20198;-82
2022/11/03 11:13:02;;;;;;;9.93;5.20;;;12.70;1.00;;;;;;4935075;29;20716;-82
2022/11/03 11:15:38;;;;;;;9.93;4.00;;;12.80;1.00;;;;;;4934365;29;20253;-81
2022/11/03 11:18:06;;;;;;;8.33;3.90;;;12.80;1.00;;;;;;4934788;29;20187;-82
2022/11/03 11:20:35;;;;;;;7.93;4.07;;;12.90;99.90;;;;;;4935014;29;20279;-83
2022/11/03 11:23:48;;;;;;;7.57;3.70;;;13.00;99.90;;;;;;4934739;29;20215;-82
2022/11/03 11:26:34;;;;;;;12.00;5.10;;;13.00;99.90;;;;;;4934630;29;20187;-84
2022/11/03 11:29:41;;;;;;;8.83;3.93;;;13.10;99.90;;;;;;4934697;29;20199;-85
2022/11/03 11:32:47;;;;;;;8.67;3.80;;;13.10;99.90;;;;;;4934970;29;20278;-83
2022/11/03 11:35:33;;;;;;;8.37;3.87;;;13.20;99.90;;;;;;4934563;29;20277;-81
2022/11/03 11:38:33;;;;;;;10.63;3.80;;;13.20;99.90;;;;;;4929699;28;20228;-82
2022/11/03 11:41:01;;;;;;;10.87;4.07;;;13.20;99.90;;;;;;4934842;29;20224;-82
2022/11/03 11:43:28;;;;;;;8.73;3.90;;;13.20;99.90;;;;;;4934481;29;20211;-82
2022/11/03 11:46:32;;;;;;;8.40;3.20;;;13.20;91.10;;;;;;4937788;29;20199;-83
2022/11/03 11:49:16;;;;;;;7.90;3.90;;;13.20;92.30;;;;;;4938318;29;20701;-82
2022/11/03 11:51:45;;;;;;;8.70;3.50;;;13.30;63.10;;;;;;4938496;29;20202;-85
2022/11/03 11:54:17;;;;;;;6.27;3.10;;;13.30;34.10;;;;;;4938502;29;20223;-82
2022/11/03 11:56:46;;;;;;;7.33;2.80;;;13.40;11.90;;;;;;4938013;29;20691;-81
2022/11/03 11:59:18;;;;;;;5.03;2.93;;;13.40;3.30;;;;;;4938043;29;20275;-83
2022/11/03 12:01:50;;;;;;;8.20;3.80;;;13.40;1.00;;;;;;4938297;29;20196;-82
2022/11/03 12:04:22;;;;;;;8.83;5.53;;;13.40;1.00;;;;;;4938571;29;20252;-82
2022/11/03 12:06:50;;;;;;;7.50;2.70;;;13.40;1.00;;;;;;4930306;29;20235;-81
2022/11/03 12:09:19;;;;;;;9.70;3.80;;;13.50;1.00;;;;;;4938146;29;20650;-82
2022/11/03 12:11:47;;;;;;;6.73;3.37;;;13.50;1.00;;;;;;4938363;29;20267;-82
2022/11/03 12:14:22;;;;;;;8.87;2.83;;;13.40;1.00;;;;;;4937842;29;20758;-80
2022/11/03 12:16:49;;;;;;;8.27;3.00;;;13.50;1.00;;;;;;4937804;29;20671;-82
2022/11/03 12:19:36;;;;;;;6.40;2.70;;;13.50;1.00;;;;;;4938182;29;20236;-82
2022/11/03 12:22:06;;;;;;;6.70;5.07;;;13.50;1.00;;;;;;4937679;29;20234;-80
2022/11/03 12:24:54;;;;;;;5.77;3.70;;;13.60;1.00;;;;;;4938007;29;20618;-83
2022/11/03 12:27:43;;;;;;;7.40;2.20;;;13.50;1.00;;;;;;4935928;28;20200;-81
2022/11/03 12:30:18;;;;;;;5.47;2.30;;;13.50;1.00;;;;;;4937832;29;20188;-81
2022/11/03 12:32:46;;;;;;;5.87;2.50;;;13.50;1.00;;;;;;4937509;29;20624;-81
2022/11/03 12:35:13;;;;;;;4.03;1.93;;;13.50;1.00;;;;;;4937785;29;20558;-82
2022/11/03 12:37:42;;;;;;;6.90;2.17;;;13.40;1.00;;;;;;4937004;29;20773;-82
2022/11/03 12:40:11;;;;;;;6.37;2.57;;;13.40;1.00;;;;;;4937342;29;20219;-85
2022/11/03 12:42:39;;;;;;;13.07;3.30;;;13.40;1.00;;;;;;4937591;29;20606;-85
2022/11/03 12:45:07;;;;;;;4.20;2.33;;;13.40;1.00;;;;;;4937600;29;20606;-84
2022/11/03 12:47:34;;;;;;;6.53;2.40;;;13.40;1.00;;;;;;4937304;29;20613;-81
2022/11/03 12:50:01;;;;;;;9.70;2.80;;;13.50;1.00;;;;;;4937257;29;20291;-82
2022/11/03 12:52:28;;;;;;;5.97;2.50;;;13.50;1.00;;;;;;4937234;29;20208;-82
2022/11/03 12:54:57;;;;;;;7.30;2.90;;;13.50;1.00;;;;;;4937123;29;20212;-84
2022/11/03 12:57:24;;;;;;;5.67;2.90;;;13.40;1.00;;;;;;4936041;29;20253;-84
2022/11/03 12:59:51;;;;;;;5.77;3.00;;;13.40;1.00;;;;;;4937493;29;20282;-82
2022/11/03 13:02:18;;;;;;;5.30;2.33;;;13.40;1.00;;;;;;4937353;29;20210;-81
2022/11/03 13:04:45;;;;;;;8.43;3.80;;;13.30;1.00;;;;;;4936851;29;20255;-81
2022/11/03 13:07:12;;;;;;;8.47;3.70;;;13.20;1.00;;;;;;4936895;29;20728;-82
2022/11/03 13:09:39;;;;;;;9.20;2.83;;;13.20;1.00;;;;;;4937167;29;20534;-82
2022/11/03 13:14:55;;;;;;;7.37;3.57;;;13.00;1.00;;;;;;4936919;29;20315;-82
2022/11/03 13:17:22;;;;;;;8.90;3.73;;;13.00;1.00;;;;;;4937001;29;20259;-83
2022/11/03 13:19:49;;;;;;;7.20;3.37;;;12.90;1.00;;;;;;4936911;29;20230;-82
2022/11/03 13:22:16;;;;;;;8.57;2.40;;;12.90;1.00;;;;;;4936970;29;20202;-85
2022/11/03 13:24:43;;;;;;;4.80;2.43;;;12.80;1.00;;;;;;4936896;29;20597;-81